sensor_id;sensor_type;location;lat;lon;timestamp;pressure;altitude;pressure_sealevel;temperature;humidity
55077;BME280;40971;44.702;11.030;2022-09-12T00:00:44;101301.56;;;16.27;100.00
55077;BME280;40971;44.702;11.030;2022-09-12T00:03:09;101343.88;;;16.63;100.00
55077;BME280;40971;44.702;11.030;2022-09-12T00:05:43;101342.75;;;16.67;100.00
55077;BME280;40971;44.702;11.030;2022-09-12T00:08:10;101282.78;;;15.93;100.00
55077;BME280;40971;44.702;11.030;2022-09-12T00:10:37;101360.69;;;16.10;100.00
55077;BME280;40971;44.702;11.030;2022-09-12T00:13:03;101352.06;;;16.08;100.00
55077;BME280;40971;44.702;11.030;2022-09-12T00:15:28;101349.34;;;16.22;100.00
55077;BME280;40971;44.702;11.030;2022-09-12T00:17:54;101368.03;;;16.32;100.00
55077;BME280;40971;44.702;11.030;2022-09-12T00:20:19;101353.88;;;16.20;100.00
55077;BME280;40971;44.702;11.030;2022-09-12T00:22:44;101355.78;;;16.18;100.00
55077;BME280;40971;44.702;11.030;2022-09-12T00:25:10;101359.78;;;16.23;100.00
55077;BME280;40971;44.702;11.030;2022-09-12T00:27:36;101355.34;;;16.24;100.00
55077;BME280;40971;44.702;11.030;2022-09-12T00:30:02;101349.03;;;16.27;100.00
55077;BME280;40971;44.702;11.030;2022-09-12T00:32:27;101360.44;;;16.40;100.00
55077;BME280;40971;44.702;11.030;2022-09-12T00:34:53;101278.47;;;15.92;100.00
55077;BME280;40971;44.702;11.030;2022-09-12T00:37:18;101353.06;;;16.32;100.00
55077;BME280;40971;44.702;11.030;2022-09-12T00:39:44;101349.88;;;16.40;100.00
55077;BME280;40971;44.702;11.030;2022-09-12T00:42:10;101319.84;;;16.30;100.00
55077;BME280;40971;44.702;11.030;2022-09-12T00:47:12;101331.06;;;16.06;100.00
55077;BME280;40971;44.702;11.030;2022-09-12T00:54:33;101357.34;;;16.20;100.00
55077;BME280;40971;44.702;11.030;2022-09-12T00:57:03;101354.38;;;16.12;100.00
55077;BME280;40971;44.702;11.030;2022-09-12T00:59:34;101364.84;;;16.27;100.00
55077;BME280;40971;44.702;11.030;2022-09-12T01:02:02;101352.41;;;16.16;100.00
55077;BME280;40971;44.702;11.030;2022-09-12T01:04:29;101369.25;;;16.26;100.00
55077;BME280;40971;44.702;11.030;2022-09-12T01:06:56;101292.47;;;15.92;100.00
55077;BME280;40971;44.702;11.030;2022-09-12T01:09:23;101313.91;;;16.01;100.00
55077;BME280;40971;44.702;11.030;2022-09-12T01:11:50;101357.13;;;16.23;100.00
55077;BME280;40971;44.702;11.030;2022-09-12T01:14:18;101363.69;;;16.18;100.00
55077;BME280;40971;44.702;11.030;2022-09-12T01:16:46;101346.06;;;16.18;100.00
55077;BME280;40971;44.702;11.030;2022-09-12T01:25:15;101300.38;;;15.80;100.00
55077;BME280;40971;44.702;11.030;2022-09-12T01:28:10;101351.97;;;16.22;100.00
55077;BME280;40971;44.702;11.030;2022-09-12T01:30:44;101353.94;;;16.06;100.00
55077;BME280;40971;44.702;11.030;2022-09-12T01:38:46;101351.75;;;15.73;100.00
55077;BME280;40971;44.702;11.030;2022-09-12T01:47:14;101346.25;;;15.63;100.00
55077;BME280;40971;44.702;11.030;2022-09-12T01:49:34;101329.53;;;15.64;100.00
55077;BME280;40971;44.702;11.030;2022-09-12T01:52:18;101339.44;;;15.73;100.00
55077;BME280;40971;44.702;11.030;2022-09-12T01:54:50;101340.47;;;15.71;100.00
55077;BME280;40971;44.702;11.030;2022-09-12T01:57:23;101320.31;;;15.43;100.00
55077;BME280;40971;44.702;11.030;2022-09-12T01:59:57;101357.13;;;15.57;100.00
55077;BME280;40971;44.702;11.030;2022-09-12T02:02:28;101348.41;;;15.56;100.00
55077;BME280;40971;44.702;11.030;2022-09-12T02:05:00;101347.28;;;15.60;100.00
55077;BME280;40971;44.702;11.030;2022-09-12T02:10:15;101343.63;;;15.49;100.00
55077;BME280;40971;44.702;11.030;2022-09-12T02:12:49;101332.81;;;15.53;100.00
55077;BME280;40971;44.702;11.030;2022-09-12T02:15:19;101327.75;;;15.50;100.00
55077;BME280;40971;44.702;11.030;2022-09-12T02:17:48;101341.22;;;15.46;100.00
55077;BME280;40971;44.702;11.030;2022-09-12T02:20:27;101307.41;;;15.25;100.00
55077;BME280;40971;44.702;11.030;2022-09-12T02:22:55;101332.59;;;15.29;100.00
55077;BME280;40971;44.702;11.030;2022-09-12T02:25:23;101320.56;;;15.25;100.00
55077;BME280;40971;44.702;11.030;2022-09-12T02:27:53;101270.41;;;14.87;100.00
55077;BME280;40971;44.702;11.030;2022-09-12T02:30:22;101332.75;;;14.99;100.00
55077;BME280;40971;44.702;11.030;2022-09-12T02:35:24;101345.25;;;14.96;100.00
55077;BME280;40971;44.702;11.030;2022-09-12T02:40:21;101327.94;;;15.06;100.00
55077;BME280;40971;44.702;11.030;2022-09-12T02:42:47;101278.31;;;14.73;100.00
55077;BME280;40971;44.702;11.030;2022-09-12T02:45:13;101316.47;;;15.07;100.00
55077;BME280;40971;44.702;11.030;2022-09-12T02:50:13;101334.34;;;15.02;100.00
55077;BME280;40971;44.702;11.030;2022-09-12T02:52:39;101315.66;;;14.92;100.00
55077;BME280;40971;44.702;11.030;2022-09-12T02:55:06;101214.28;;;14.31;100.00
55077;BME280;40971;44.702;11.030;2022-09-12T02:57:32;101308.50;;;14.94;100.00
55077;BME280;40971;44.702;11.030;2022-09-12T03:00:00;101336.03;;;15.03;100.00
55077;BME280;40971;44.702;11.030;2022-09-12T03:05:23;101321.47;;;15.12;100.00
55077;BME280;40971;44.702;11.030;2022-09-12T03:08:01;101330.88;;;15.01;100.00
55077;BME280;40971;44.702;11.030;2022-09-12T03:10:36;101343.38;;;14.84;100.00
55077;BME280;40971;44.702;11.030;2022-09-12T03:13:24;101338.41;;;14.65;100.00
55077;BME280;40971;44.702;11.030;2022-09-12T03:19:08;101328.06;;;14.76;100.00
55077;BME280;40971;44.702;11.030;2022-09-12T03:21:50;101334.75;;;14.82;100.00
55077;BME280;40971;44.702;11.030;2022-09-12T03:24:20;101339.31;;;14.92;100.00
55077;BME280;40971;44.702;11.030;2022-09-12T03:26:55;101330.13;;;14.71;100.00
55077;BME280;40971;44.702;11.030;2022-09-12T03:29:24;101332.22;;;14.66;100.00
55077;BME280;40971;44.702;11.030;2022-09-12T03:31:56;101341.59;;;14.70;100.00
55077;BME280;40971;44.702;11.030;2022-09-12T03:34:24;101294.94;;;14.45;100.00
55077;BME280;40971;44.702;11.030;2022-09-12T03:36:51;101333.06;;;14.66;100.00
55077;BME280;40971;44.702;11.030;2022-09-12T03:39:17;101340.75;;;14.55;100.00
55077;BME280;40971;44.702;11.030;2022-09-12T03:41:42;101339.38;;;14.34;100.00
55077;BME280;40971;44.702;11.030;2022-09-12T03:44:08;101346.22;;;14.36;100.00
55077;BME280;40971;44.702;11.030;2022-09-12T03:46:34;101344.91;;;14.29;100.00
55077;BME280;40971;44.702;11.030;2022-09-12T03:48:59;101274.41;;;14.07;100.00
55077;BME280;40971;44.702;11.030;2022-09-12T03:51:25;101334.66;;;14.69;100.00
55077;BME280;40971;44.702;11.030;2022-09-12T03:53:50;101345.53;;;14.77;100.00
55077;BME280;40971;44.702;11.030;2022-09-12T03:56:16;101213.31;;;13.90;100.00
55077;BME280;40971;44.702;11.030;2022-09-12T03:58:42;101338.91;;;14.41;100.00
55077;BME280;40971;44.702;11.030;2022-09-12T04:01:09;101275.38;;;14.21;100.00
55077;BME280;40971;44.702;11.030;2022-09-12T04:03:44;101341.91;;;14.35;100.00
55077;BME280;40971;44.702;11.030;2022-09-12T04:06:11;101348.66;;;14.39;100.00
55077;BME280;40971;44.702;11.030;2022-09-12T04:08:39;101352.84;;;14.58;100.00
55077;BME280;40971;44.702;11.030;2022-09-12T04:11:11;101330.59;;;14.49;100.00
55077;BME280;40971;44.702;11.030;2022-09-12T04:13:38;101276.50;;;14.17;100.00
55077;BME280;40971;44.702;11.030;2022-09-12T04:16:04;101353.41;;;14.49;100.00
55077;BME280;40971;44.702;11.030;2022-09-12T04:18:30;101271.97;;;14.04;100.00
55077;BME280;40971;44.702;11.030;2022-09-12T04:20:56;101349.09;;;14.48;100.00
55077;BME280;40971;44.702;11.030;2022-09-12T04:23:22;101333.47;;;14.30;100.00
55077;BME280;40971;44.702;11.030;2022-09-12T04:25:55;101338.13;;;14.25;100.00
55077;BME280;40971;44.702;11.030;2022-09-12T04:28:21;101360.13;;;14.38;100.00
55077;BME280;40971;44.702;11.030;2022-09-12T04:30:47;101350.19;;;14.43;100.00
55077;BME280;40971;44.702;11.030;2022-09-12T04:33:13;101349.00;;;14.49;100.00
55077;BME280;40971;44.702;11.030;2022-09-12T04:35:38;101364.13;;;14.46;100.00
55077;BME280;40971;44.702;11.030;2022-09-12T04:38:04;101344.91;;;14.29;100.00
55077;BME280;40971;44.702;11.030;2022-09-12T04:40:29;101353.09;;;14.39;100.00
55077;BME280;40971;44.702;11.030;2022-09-12T04:42:55;101334.13;;;14.34;100.00
55077;BME280;40971;44.702;11.030;2022-09-12T04:45:21;101360.69;;;14.29;100.00
55077;BME280;40971;44.702;11.030;2022-09-12T04:47:47;101344.94;;;13.99;100.00
55077;BME280;40971;44.702;11.030;2022-09-12T04:50:12;101268.75;;;13.55;100.00
55077;BME280;40971;44.702;11.030;2022-09-12T04:52:39;101355.34;;;14.31;100.00
55077;BME280;40971;44.702;11.030;2022-09-12T04:55:06;101366.19;;;14.55;100.00
55077;BME280;40971;44.702;11.030;2022-09-12T04:57:31;101306.25;;;14.31;100.00
55077;BME280;40971;44.702;11.030;2022-09-12T04:59:57;101317.38;;;14.51;100.00
55077;BME280;40971;44.702;11.030;2022-09-12T05:02:24;101353.31;;;14.93;100.00
55077;BME280;40971;44.702;11.030;2022-09-12T05:04:50;101332.75;;;14.71;100.00
55077;BME280;40971;44.702;11.030;2022-09-12T05:07:17;101359.72;;;14.74;100.00
55077;BME280;40971;44.702;11.030;2022-09-12T05:09:43;101362.91;;;14.65;100.00
55077;BME280;40971;44.702;11.030;2022-09-12T05:12:09;101345.34;;;14.66;100.00
55077;BME280;40971;44.702;11.030;2022-09-12T05:14:34;101279.59;;;14.23;100.00
55077;BME280;40971;44.702;11.030;2022-09-12T05:17:00;101368.28;;;14.78;100.00
55077;BME280;40971;44.702;11.030;2022-09-12T05:19:27;101368.44;;;14.75;100.00
55077;BME280;40971;44.702;11.030;2022-09-12T05:21:53;101301.13;;;14.44;100.00
55077;BME280;40971;44.702;11.030;2022-09-12T05:24:18;101351.56;;;14.79;100.00
55077;BME280;40971;44.702;11.030;2022-09-12T05:26:43;101377.09;;;14.91;100.00
55077;BME280;40971;44.702;11.030;2022-09-12T05:29:09;101391.66;;;14.97;100.00
55077;BME280;40971;44.702;11.030;2022-09-12T05:31:34;101317.75;;;14.73;100.00
55077;BME280;40971;44.702;11.030;2022-09-12T05:34:00;101389.88;;;15.12;100.00
55077;BME280;40971;44.702;11.030;2022-09-12T05:36:29;101404.72;;;15.13;100.00
55077;BME280;40971;44.702;11.030;2022-09-12T05:38:55;101385.38;;;14.99;100.00
55077;BME280;40971;44.702;11.030;2022-09-12T05:41:23;101392.66;;;15.09;100.00
55077;BME280;40971;44.702;11.030;2022-09-12T05:43:54;101410.13;;;15.10;100.00
55077;BME280;40971;44.702;11.030;2022-09-12T05:46:23;101413.44;;;15.13;100.00
55077;BME280;40971;44.702;11.030;2022-09-12T05:48:50;101419.06;;;15.21;100.00
55077;BME280;40971;44.702;11.030;2022-09-12T05:51:17;101409.19;;;15.25;100.00
55077;BME280;40971;44.702;11.030;2022-09-12T05:54:05;101418.75;;;15.40;100.00
55077;BME280;40971;44.702;11.030;2022-09-12T05:56:33;101353.59;;;15.02;100.00
55077;BME280;40971;44.702;11.030;2022-09-12T05:59:01;101182.22;;;14.12;100.00
55077;BME280;40971;44.702;11.030;2022-09-12T06:01:28;101413.03;;;15.62;100.00
55077;BME280;40971;44.702;11.030;2022-09-12T06:03:56;101406.75;;;15.77;100.00
55077;BME280;40971;44.702;11.030;2022-09-12T06:06:23;101395.63;;;15.86;100.00
55077;BME280;40971;44.702;11.030;2022-09-12T06:08:55;101331.84;;;15.69;100.00
55077;BME280;40971;44.702;11.030;2022-09-12T06:11:24;101390.88;;;16.18;100.00
55077;BME280;40971;44.702;11.030;2022-09-12T06:13:50;101377.28;;;16.24;100.00
55077;BME280;40971;44.702;11.030;2022-09-12T06:16:20;101401.56;;;16.55;100.00
55077;BME280;40971;44.702;11.030;2022-09-12T06:18:47;101381.84;;;16.61;100.00
55077;BME280;40971;44.702;11.030;2022-09-12T06:21:13;101385.78;;;16.68;100.00
55077;BME280;40971;44.702;11.030;2022-09-12T06:23:39;101406.56;;;16.85;100.00
55077;BME280;40971;44.702;11.030;2022-09-12T06:26:07;101350.31;;;16.59;100.00
55077;BME280;40971;44.702;11.030;2022-09-12T06:28:40;101342.94;;;16.64;100.00
55077;BME280;40971;44.702;11.030;2022-09-12T06:31:13;101381.31;;;17.06;100.00
55077;BME280;40971;44.702;11.030;2022-09-12T06:33:41;101401.09;;;17.37;100.00
55077;BME280;40971;44.702;11.030;2022-09-12T06:36:12;101397.47;;;17.51;100.00
55077;BME280;40971;44.702;11.030;2022-09-12T06:38:42;101392.34;;;17.61;100.00
55077;BME280;40971;44.702;11.030;2022-09-12T06:41:10;101334.22;;;17.50;100.00
55077;BME280;40971;44.702;11.030;2022-09-12T06:43:37;101396.44;;;18.01;100.00
55077;BME280;40971;44.702;11.030;2022-09-12T06:46:02;101401.88;;;18.11;100.00
55077;BME280;40971;44.702;11.030;2022-09-12T06:48:28;101337.69;;;17.98;100.00
55077;BME280;40971;44.702;11.030;2022-09-12T06:51:05;101397.66;;;18.55;100.00
55077;BME280;40971;44.702;11.030;2022-09-12T06:53:34;101404.94;;;18.75;100.00
55077;BME280;40971;44.702;11.030;2022-09-12T06:56:07;101348.19;;;18.68;100.00
55077;BME280;40971;44.702;11.030;2022-09-12T06:58:34;101404.06;;;19.42;100.00
55077;BME280;40971;44.702;11.030;2022-09-12T07:01:06;101417.84;;;19.79;96.50
55077;BME280;40971;44.702;11.030;2022-09-12T07:03:33;101321.91;;;19.64;94.59
55077;BME280;40971;44.702;11.030;2022-09-12T07:06:09;101400.56;;;20.49;92.30
55077;BME280;40971;44.702;11.030;2022-09-12T07:08:36;101397.31;;;20.87;90.77
55077;BME280;40971;44.702;11.030;2022-09-12T07:11:10;101400.50;;;21.21;86.49
55077;BME280;40971;44.702;11.030;2022-09-12T07:13:36;101397.25;;;21.48;85.53
55077;BME280;40971;44.702;11.030;2022-09-12T07:16:05;101391.28;;;21.84;82.45
55077;BME280;40971;44.702;11.030;2022-09-12T07:18:32;101351.78;;;21.99;81.55
55077;BME280;40971;44.702;11.030;2022-09-12T07:21:02;101399.25;;;22.52;78.38
55077;BME280;40971;44.702;11.030;2022-09-12T07:23:28;101401.28;;;22.87;74.96
55077;BME280;40971;44.702;11.030;2022-09-12T07:25:55;101393.19;;;23.06;73.77
55077;BME280;40971;44.702;11.030;2022-09-12T07:28:22;101395.16;;;23.32;72.26
55077;BME280;40971;44.702;11.030;2022-09-12T07:30:48;101397.22;;;23.65;72.13
55077;BME280;40971;44.702;11.030;2022-09-12T07:33:14;101388.63;;;23.89;69.84
55077;BME280;40971;44.702;11.030;2022-09-12T07:35:39;101385.84;;;23.99;68.93
55077;BME280;40971;44.702;11.030;2022-09-12T07:38:04;101321.09;;;23.89;67.43
55077;BME280;40971;44.702;11.030;2022-09-12T07:40:30;101390.25;;;24.26;63.24
55077;BME280;40971;44.702;11.030;2022-09-12T07:42:56;101394.16;;;24.32;66.37
55077;BME280;40971;44.702;11.030;2022-09-12T07:45:21;101361.81;;;24.17;67.25
55077;BME280;40971;44.702;11.030;2022-09-12T07:47:47;101347.69;;;24.42;64.83
55077;BME280;40971;44.702;11.030;2022-09-12T07:50:12;101385.63;;;24.80;64.85
55077;BME280;40971;44.702;11.030;2022-09-12T07:52:38;101385.38;;;24.99;61.73
55077;BME280;40971;44.702;11.030;2022-09-12T07:55:03;101391.41;;;25.01;60.30
55077;BME280;40971;44.702;11.030;2022-09-12T07:57:29;101328.19;;;24.50;61.17
55077;BME280;40971;44.702;11.030;2022-09-12T07:59:54;101391.38;;;25.35;60.17
55077;BME280;40971;44.702;11.030;2022-09-12T08:02:20;101396.50;;;25.12;61.13
55077;BME280;40971;44.702;11.030;2022-09-12T08:04:46;101402.94;;;25.44;59.07
55077;BME280;40971;44.702;11.030;2022-09-12T08:07:12;101398.31;;;25.62;57.13
55077;BME280;40971;44.702;11.030;2022-09-12T08:09:38;101394.69;;;25.96;56.66
55077;BME280;40971;44.702;11.030;2022-09-12T08:12:03;101393.84;;;26.20;56.30
55077;BME280;40971;44.702;11.030;2022-09-12T08:14:29;101393.88;;;26.12;56.80
55077;BME280;40971;44.702;11.030;2022-09-12T08:16:55;101345.50;;;26.29;56.34
55077;BME280;40971;44.702;11.030;2022-09-12T08:19:20;101398.00;;;26.71;56.55
55077;BME280;40971;44.702;11.030;2022-09-12T08:21:47;101391.56;;;27.05;55.52
55077;BME280;40971;44.702;11.030;2022-09-12T08:24:12;101394.66;;;27.55;53.40
55077;BME280;40971;44.702;11.030;2022-09-12T08:26:38;101345.13;;;26.57;51.05
55077;BME280;40971;44.702;11.030;2022-09-12T08:29:03;101389.50;;;26.51;53.38
55077;BME280;40971;44.702;11.030;2022-09-12T08:31:29;101389.53;;;26.11;54.01
55077;BME280;40971;44.702;11.030;2022-09-12T08:34:03;101388.69;;;26.43;53.88
55077;BME280;40971;44.702;11.030;2022-09-12T08:36:31;101381.97;;;26.55;54.98
55077;BME280;40971;44.702;11.030;2022-09-12T08:39:03;101393.94;;;26.91;53.44
55077;BME280;40971;44.702;11.030;2022-09-12T08:41:44;101414.25;;;27.25;54.49
55077;BME280;40971;44.702;11.030;2022-09-12T08:44:17;101406.88;;;27.58;51.16
55077;BME280;40971;44.702;11.030;2022-09-12T08:47:39;101407.38;;;27.53;50.38
55077;BME280;40971;44.702;11.030;2022-09-12T08:57:56;101334.31;;;26.81;50.42
55077;BME280;40971;44.702;11.030;2022-09-12T09:00:21;101401.16;;;27.30;49.83
55077;BME280;40971;44.702;11.030;2022-09-12T09:16:24;101394.94;;;27.61;50.41
55077;BME280;40971;44.702;11.030;2022-09-12T09:18:51;101415.50;;;27.45;49.60
55077;BME280;40971;44.702;11.030;2022-09-12T09:21:29;101403.03;;;28.06;47.30
55077;BME280;40971;44.702;11.030;2022-09-12T09:24:04;101396.31;;;27.56;48.53
55077;BME280;40971;44.702;11.030;2022-09-12T09:26:48;101409.78;;;27.48;48.12
55077;BME280;40971;44.702;11.030;2022-09-12T09:29:17;101396.19;;;27.50;49.77
55077;BME280;40971;44.702;11.030;2022-09-12T09:31:47;101394.75;;;27.93;48.33
55077;BME280;40971;44.702;11.030;2022-09-12T09:34:21;101397.13;;;27.88;46.14
55077;BME280;40971;44.702;11.030;2022-09-12T09:40:21;101385.06;;;27.84;48.73
55077;BME280;40971;44.702;11.030;2022-09-12T09:44:52;101388.56;;;28.30;50.18
55077;BME280;40971;44.702;11.030;2022-09-12T09:47:19;101393.25;;;27.68;46.96
55077;BME280;40971;44.702;11.030;2022-09-12T09:49:45;101326.72;;;27.32;48.26
55077;BME280;40971;44.702;11.030;2022-09-12T09:52:14;101316.88;;;27.24;48.77
55077;BME280;40971;44.702;11.030;2022-09-12T09:54:50;101380.69;;;27.60;47.59
55077;BME280;40971;44.702;11.030;2022-09-12T09:57:50;101384.41;;;27.59;48.57
55077;BME280;40971;44.702;11.030;2022-09-12T10:00:25;101318.56;;;27.48;49.35
55077;BME280;40971;44.702;11.030;2022-09-12T10:05:46;101374.34;;;28.74;47.35
55077;BME280;40971;44.702;11.030;2022-09-12T10:08:39;101376.47;;;28.64;45.50
55077;BME280;40971;44.702;11.030;2022-09-12T10:16:22;101364.47;;;27.99;45.10
55077;BME280;40971;44.702;11.030;2022-09-12T10:18:49;101329.28;;;27.48;45.55
55077;BME280;40971;44.702;11.030;2022-09-12T10:23:42;101358.81;;;27.94;45.98
55077;BME280;40971;44.702;11.030;2022-09-12T10:26:11;101367.38;;;28.12;47.83
55077;BME280;40971;44.702;11.030;2022-09-12T10:28:43;101351.97;;;27.69;45.18
55077;BME280;40971;44.702;11.030;2022-09-12T10:31:14;101368.13;;;28.21;45.66
55077;BME280;40971;44.702;11.030;2022-09-12T10:33:49;101360.69;;;27.94;45.83
55077;BME280;40971;44.702;11.030;2022-09-12T10:36:20;101312.97;;;27.58;48.20
55077;BME280;40971;44.702;11.030;2022-09-12T10:38:55;101284.69;;;27.70;45.48
55077;BME280;40971;44.702;11.030;2022-09-12T10:41:23;101337.16;;;28.33;46.34
55077;BME280;40971;44.702;11.030;2022-09-12T10:43:49;101366.56;;;28.64;46.11
55077;BME280;40971;44.702;11.030;2022-09-12T10:48:47;101338.09;;;28.03;43.82
55077;BME280;40971;44.702;11.030;2022-09-12T10:51:26;101348.41;;;28.14;42.48
55077;BME280;40971;44.702;11.030;2022-09-12T10:53:57;101353.31;;;28.10;41.80
55077;BME280;40971;44.702;11.030;2022-09-12T10:59:21;101337.19;;;28.63;43.08
55077;BME280;40971;44.702;11.030;2022-09-12T11:04:32;101323.56;;;28.64;39.79
55077;BME280;40971;44.702;11.030;2022-09-12T11:10:05;101335.50;;;29.06;43.03
55077;BME280;40971;44.702;11.030;2022-09-12T11:26:43;101280.16;;;28.67;40.98
55077;BME280;40971;44.702;11.030;2022-09-12T11:37:56;101318.59;;;29.48;42.52
55077;BME280;40971;44.702;11.030;2022-09-12T11:43:28;101307.59;;;29.28;42.02
55077;BME280;40971;44.702;11.030;2022-09-12T11:45:51;101295.34;;;29.62;39.79
55077;BME280;40971;44.702;11.030;2022-09-12T11:48:36;101306.97;;;29.90;38.63
55077;BME280;40971;44.702;11.030;2022-09-12T11:51:06;101296.75;;;30.07;38.37
55077;BME280;40971;44.702;11.030;2022-09-12T11:53:39;101304.34;;;30.25;39.79
55077;BME280;40971;44.702;11.030;2022-09-12T11:56:15;101245.47;;;30.70;38.44
55077;BME280;40971;44.702;11.030;2022-09-12T11:58:45;101299.44;;;31.24;39.02
55077;BME280;40971;44.702;11.030;2022-09-12T12:01:19;101282.59;;;31.22;38.82
55077;BME280;40971;44.702;11.030;2022-09-12T12:03:47;101240.25;;;31.23;35.33
55077;BME280;40971;44.702;11.030;2022-09-12T12:06:39;101303.13;;;30.62;39.61
55077;BME280;40971;44.702;11.030;2022-09-12T12:09:11;101299.41;;;30.35;40.67
55077;BME280;40971;44.702;11.030;2022-09-12T12:11:44;101302.00;;;30.22;39.76
55077;BME280;40971;44.702;11.030;2022-09-12T12:14:22;101313.25;;;30.60;39.36
55077;BME280;40971;44.702;11.030;2022-09-12T12:16:49;101242.81;;;30.35;36.07
55077;BME280;40971;44.702;11.030;2022-09-12T12:21:45;101289.53;;;30.14;38.07
55077;BME280;40971;44.702;11.030;2022-09-12T12:24:15;101289.22;;;30.03;38.07
55077;BME280;40971;44.702;11.030;2022-09-12T12:27:00;101288.09;;;30.12;37.23
55077;BME280;40971;44.702;11.030;2022-09-12T12:29:43;101262.72;;;30.34;37.10
55077;BME280;40971;44.702;11.030;2022-09-12T12:34:41;101220.91;;;30.45;35.91
55077;BME280;40971;44.702;11.030;2022-09-12T12:39:58;101265.13;;;31.11;34.14
55077;BME280;40971;44.702;11.030;2022-09-12T12:50:05;101248.44;;;30.75;37.71
55077;BME280;40971;44.702;11.030;2022-09-12T12:52:44;101259.47;;;30.45;37.46
55077;BME280;40971;44.702;11.030;2022-09-12T12:55:23;101245.06;;;29.97;36.46
55077;BME280;40971;44.702;11.030;2022-09-12T13:00:36;101243.97;;;30.61;39.14
55077;BME280;40971;44.702;11.030;2022-09-12T13:05:48;101239.88;;;30.65;38.00
55077;BME280;40971;44.702;11.030;2022-09-12T13:16:01;101241.59;;;30.86;35.60
55077;BME280;40971;44.702;11.030;2022-09-12T13:18:32;101129.53;;;30.63;34.93
55077;BME280;40971;44.702;11.030;2022-09-12T13:21:13;101230.47;;;31.22;36.10
55077;BME280;40971;44.702;11.030;2022-09-12T13:23:41;101221.81;;;31.79;34.03
55077;BME280;40971;44.702;11.030;2022-09-12T13:26:12;101235.47;;;31.91;32.23
55077;BME280;40971;44.702;11.030;2022-09-12T13:28:38;101207.44;;;31.52;33.00
55077;BME280;40971;44.702;11.030;2022-09-12T13:31:23;101215.75;;;31.84;34.14
55077;BME280;40971;44.702;11.030;2022-09-12T13:33:54;101220.94;;;31.98;33.64
55077;BME280;40971;44.702;11.030;2022-09-12T13:36:41;101222.59;;;31.99;35.25
55077;BME280;40971;44.702;11.030;2022-09-12T13:44:17;101138.94;;;31.20;33.21
55077;BME280;40971;44.702;11.030;2022-09-12T13:46:44;101165.31;;;31.18;33.84
55077;BME280;40971;44.702;11.030;2022-09-12T13:49:21;101202.69;;;31.74;35.44
55077;BME280;40971;44.702;11.030;2022-09-12T13:52:02;101197.47;;;31.53;32.64
55077;BME280;40971;44.702;11.030;2022-09-12T13:54:29;101182.53;;;31.37;33.03
55077;BME280;40971;44.702;11.030;2022-09-12T13:56:55;101136.00;;;31.02;33.02
55077;BME280;40971;44.702;11.030;2022-09-12T13:59:21;101179.41;;;31.66;34.41
55077;BME280;40971;44.702;11.030;2022-09-12T14:01:47;101181.06;;;31.81;34.84
55077;BME280;40971;44.702;11.030;2022-09-12T14:04:21;101187.91;;;31.90;34.60
55077;BME280;40971;44.702;11.030;2022-09-12T14:09:41;101184.16;;;30.98;34.06
55077;BME280;40971;44.702;11.030;2022-09-12T14:12:34;101176.88;;;30.86;34.21
55077;BME280;40971;44.702;11.030;2022-09-12T14:15:02;101125.00;;;30.77;34.90
55077;BME280;40971;44.702;11.030;2022-09-12T14:17:34;101175.47;;;31.23;32.94
55077;BME280;40971;44.702;11.030;2022-09-12T14:20:10;101174.47;;;31.30;34.10
55077;BME280;40971;44.702;11.030;2022-09-12T14:22:40;101158.06;;;31.32;31.79
55077;BME280;40971;44.702;11.030;2022-09-12T14:25:14;101154.28;;;31.53;33.10
55077;BME280;40971;44.702;11.030;2022-09-12T14:27:51;101158.00;;;31.65;31.58
55077;BME280;40971;44.702;11.030;2022-09-12T14:33:02;101163.78;;;30.89;32.82
55077;BME280;40971;44.702;11.030;2022-09-12T14:35:31;101149.28;;;30.83;34.90
55077;BME280;40971;44.702;11.030;2022-09-12T14:38:23;101155.16;;;31.20;33.31
55077;BME280;40971;44.702;11.030;2022-09-12T14:40:59;101136.81;;;31.82;33.52
55077;BME280;40971;44.702;11.030;2022-09-12T14:43:32;101138.06;;;31.66;33.16
55077;BME280;40971;44.702;11.030;2022-09-12T14:46:02;101117.78;;;31.10;32.15
55077;BME280;40971;44.702;11.030;2022-09-12T14:48:35;101079.78;;;30.99;33.65
55077;BME280;40971;44.702;11.030;2022-09-12T14:51:03;101138.72;;;31.48;33.59
55077;BME280;40971;44.702;11.030;2022-09-12T14:53:35;101135.38;;;31.66;33.63
55077;BME280;40971;44.702;11.030;2022-09-12T14:58:31;101134.53;;;32.37;32.04
55077;BME280;40971;44.702;11.030;2022-09-12T15:01:22;101130.41;;;31.76;31.45
55077;BME280;40971;44.702;11.030;2022-09-12T15:03:48;101131.25;;;31.04;33.50
55077;BME280;40971;44.702;11.030;2022-09-12T15:06:29;101128.56;;;31.37;31.51
55077;BME280;40971;44.702;11.030;2022-09-12T15:09:01;101066.09;;;30.80;32.35
55077;BME280;40971;44.702;11.030;2022-09-12T15:11:28;101041.16;;;29.78;32.07
55077;BME280;40971;44.702;11.030;2022-09-12T15:13:53;101087.41;;;29.94;32.18
55077;BME280;40971;44.702;11.030;2022-09-12T15:16:19;101125.31;;;30.47;33.58
55077;BME280;40971;44.702;11.030;2022-09-12T15:18:45;101121.13;;;30.32;32.28
55077;BME280;40971;44.702;11.030;2022-09-12T15:21:18;101120.34;;;30.51;33.05
55077;BME280;40971;44.702;11.030;2022-09-12T15:23:47;101122.94;;;30.79;31.29
55077;BME280;40971;44.702;11.030;2022-09-12T15:26:24;101122.13;;;30.98;32.86